sensor_id;sensor_type;location;lat;lon;timestamp;pressure;altitude;pressure_sealevel;temperature;humidity
8039;BME280;4062;49.844;8.120;2023-07-30T00:03:46;98785.81;;;18.83;56.67
8039;BME280;4062;49.844;8.120;2023-07-30T00:05:58;98779.63;;;18.83;56.61
8039;BME280;4062;49.844;8.120;2023-07-30T00:07:59;98765.34;;;18.82;56.60
8039;BME280;4062;49.844;8.120;2023-07-30T00:10:00;98775.94;;;18.84;56.52
8039;BME280;4062;49.844;8.120;2023-07-30T00:12:02;98772.44;;;18.83;56.43
8039;BME280;4062;49.844;8.120;2023-07-30T00:14:04;98765.34;;;18.82;56.47
8039;BME280;4062;49.844;8.120;2023-07-30T00:16:05;98768.03;;;18.82;56.25
8039;BME280;4062;49.844;8.120;2023-07-30T00:18:06;98771.59;;;18.83;56.29
8039;BME280;4062;49.844;8.120;2023-07-30T00:20:09;98776.94;;;18.83;56.68
8039;BME280;4062;49.844;8.120;2023-07-30T00:22:10;98778.75;;;18.82;56.63
8039;BME280;4062;49.844;8.120;2023-07-30T00:24:15;98786.78;;;18.82;56.35
8039;BME280;4062;49.844;8.120;2023-07-30T00:26:16;98790.31;;;18.83;56.76
8039;BME280;4062;49.844;8.120;2023-07-30T00:28:18;98782.28;;;18.83;56.80
8039;BME280;4062;49.844;8.120;2023-07-30T00:30:19;98791.16;;;18.83;56.59
8039;BME280;4062;49.844;8.120;2023-07-30T00:32:20;98787.66;;;18.83;56.55
8039;BME280;4062;49.844;8.120;2023-07-30T00:34:22;98789.44;;;18.82;56.36
8039;BME280;4062;49.844;8.120;2023-07-30T00:36:23;98792.13;;;18.82;56.64
8039;BME280;4062;49.844;8.120;2023-07-30T00:38:24;98789.44;;;18.82;56.42
8039;BME280;4062;49.844;8.120;2023-07-30T00:40:26;98794.78;;;18.82;56.45
8039;BME280;4062;49.844;8.120;2023-07-30T00:42:27;98791.16;;;18.83;56.52
8039;BME280;4062;49.844;8.120;2023-07-30T00:44:28;98794.78;;;18.82;56.42
8039;BME280;4062;49.844;8.120;2023-07-30T00:46:31;98793.00;;;18.83;56.36
8039;BME280;4062;49.844;8.120;2023-07-30T00:48:33;98796.63;;;18.82;56.30
8039;BME280;4062;49.844;8.120;2023-07-30T00:50:34;98793.00;;;18.83;56.63
8039;BME280;4062;49.844;8.120;2023-07-30T00:52:37;98795.66;;;18.83;56.66
8039;BME280;4062;49.844;8.120;2023-07-30T00:54:39;98796.63;;;18.82;56.54
8039;BME280;4062;49.844;8.120;2023-07-30T00:56:48;98795.66;;;18.83;56.61
8039;BME280;4062;49.844;8.120;2023-07-30T00:58:52;98801.03;;;18.83;56.71
8039;BME280;4062;49.844;8.120;2023-07-30T01:00:54;98797.47;;;18.82;56.45
8039;BME280;4062;49.844;8.120;2023-07-30T01:02:56;98796.50;;;18.83;56.54
8039;BME280;4062;49.844;8.120;2023-07-30T01:04:58;98795.66;;;18.83;56.45
8039;BME280;4062;49.844;8.120;2023-07-30T01:07:02;98797.47;;;18.82;56.49
8039;BME280;4062;49.844;8.120;2023-07-30T01:09:03;98799.31;;;18.82;56.58
8039;BME280;4062;49.844;8.120;2023-07-30T01:11:06;98800.16;;;18.82;56.47
8039;BME280;4062;49.844;8.120;2023-07-30T01:13:10;98803.69;;;18.83;56.38
8039;BME280;4062;49.844;8.120;2023-07-30T01:15:13;98805.50;;;18.82;56.63
8039;BME280;4062;49.844;8.120;2023-07-30T01:17:14;98807.34;;;18.82;56.58
8039;BME280;4062;49.844;8.120;2023-07-30T01:19:16;98810.84;;;18.82;56.52
8039;BME280;4062;49.844;8.120;2023-07-30T01:21:17;98813.53;;;18.82;56.47
8039;BME280;4062;49.844;8.120;2023-07-30T01:23:20;98810.00;;;18.82;56.70
8039;BME280;4062;49.844;8.120;2023-07-30T01:25:24;98810.00;;;18.82;56.60
8039;BME280;4062;49.844;8.120;2023-07-30T01:27:31;98811.72;;;18.83;56.48
8039;BME280;4062;49.844;8.120;2023-07-30T01:29:48;98806.38;;;18.83;56.54
8039;BME280;4062;49.844;8.120;2023-07-30T01:31:56;98810.00;;;18.82;56.66
8039;BME280;4062;49.844;8.120;2023-07-30T01:33:59;98810.00;;;18.82;56.55
8039;BME280;4062;49.844;8.120;2023-07-30T01:36:02;98817.09;;;18.83;56.52
8039;BME280;4062;49.844;8.120;2023-07-30T01:38:05;98822.44;;;18.83;56.33
8039;BME280;4062;49.844;8.120;2023-07-30T01:40:08;98826.06;;;18.82;56.80
8039;BME280;4062;49.844;8.120;2023-07-30T01:42:12;98826.91;;;18.82;56.47
8039;BME280;4062;49.844;8.120;2023-07-30T01:44:14;98832.25;;;18.82;56.80
8039;BME280;4062;49.844;8.120;2023-07-30T01:48:39;98834.94;;;18.82;56.68
8039;BME280;4062;49.844;8.120;2023-07-30T01:50:40;98831.44;;;18.82;56.48
8039;BME280;4062;49.844;8.120;2023-07-30T01:52:41;98842.97;;;18.82;56.87
8039;BME280;4062;49.844;8.120;2023-07-30T01:54:43;98841.16;;;18.83;56.64
8039;BME280;4062;49.844;8.120;2023-07-30T01:56:44;98839.44;;;18.82;56.80
8039;BME280;4062;49.844;8.120;2023-07-30T01:58:46;98836.78;;;18.82;56.61
8039;BME280;4062;49.844;8.120;2023-07-30T02:00:47;98842.13;;;18.82;56.53
8039;BME280;4062;49.844;8.120;2023-07-30T02:02:48;98840.28;;;18.82;56.83
8039;BME280;4062;49.844;8.120;2023-07-30T02:04:49;98842.97;;;18.82;56.52
8039;BME280;4062;49.844;8.120;2023-07-30T02:06:51;98846.53;;;18.83;56.90
8039;BME280;4062;49.844;8.120;2023-07-30T02:08:52;98846.53;;;18.83;56.80
8039;BME280;4062;49.844;8.120;2023-07-30T02:13:24;98835.91;;;18.81;56.62
8039;BME280;4062;49.844;8.120;2023-07-30T02:15:26;98842.13;;;18.82;56.74
8039;BME280;4062;49.844;8.120;2023-07-30T02:17:27;98844.81;;;18.82;56.73
8039;BME280;4062;49.844;8.120;2023-07-30T02:19:28;98852.84;;;18.82;56.40
8039;BME280;4062;49.844;8.120;2023-07-30T02:21:29;98848.31;;;18.82;56.57
8039;BME280;4062;49.844;8.120;2023-07-30T02:23:33;98856.34;;;18.82;56.79
8039;BME280;4062;49.844;8.120;2023-07-30T02:25:34;98855.50;;;18.82;56.42
8039;BME280;4062;49.844;8.120;2023-07-30T02:27:36;98855.50;;;18.82;56.54
8039;BME280;4062;49.844;8.120;2023-07-30T02:29:37;98859.03;;;18.82;56.45
8039;BME280;4062;49.844;8.120;2023-07-30T02:31:38;98860.88;;;18.82;56.45
8039;BME280;4062;49.844;8.120;2023-07-30T02:33:39;98861.72;;;18.82;56.81
8039;BME280;4062;49.844;8.120;2023-07-30T02:35:42;98851.00;;;18.82;56.72
8039;BME280;4062;49.844;8.120;2023-07-30T02:37:44;98849.19;;;18.83;56.66
8039;BME280;4062;49.844;8.120;2023-07-30T02:39:45;98850.16;;;18.82;56.67
8039;BME280;4062;49.844;8.120;2023-07-30T02:41:46;98842.13;;;18.82;56.81
8039;BME280;4062;49.844;8.120;2023-07-30T02:43:48;98848.31;;;18.82;56.59
8039;BME280;4062;49.844;8.120;2023-07-30T02:45:49;98847.47;;;18.82;56.60
8039;BME280;4062;49.844;8.120;2023-07-30T02:47:51;98851.00;;;18.82;56.57
8039;BME280;4062;49.844;8.120;2023-07-30T02:49:52;98858.19;;;18.82;56.67
8039;BME280;4062;49.844;8.120;2023-07-30T02:51:54;98860.88;;;18.82;56.80
8039;BME280;4062;49.844;8.120;2023-07-30T02:53:59;98861.72;;;18.82;56.77
8039;BME280;4062;49.844;8.120;2023-07-30T02:56:05;98863.53;;;18.82;56.64
8039;BME280;4062;49.844;8.120;2023-07-30T02:58:06;98861.72;;;18.82;56.84
8039;BME280;4062;49.844;8.120;2023-07-30T03:00:08;98857.31;;;18.81;56.63
8039;BME280;4062;49.844;8.120;2023-07-30T03:02:10;98854.56;;;18.83;56.66
8039;BME280;4062;49.844;8.120;2023-07-30T03:04:11;98859.03;;;18.82;56.74
8039;BME280;4062;49.844;8.120;2023-07-30T03:06:13;98853.78;;;18.81;56.59
8039;BME280;4062;49.844;8.120;2023-07-30T03:08:15;98850.16;;;18.82;56.67
8039;BME280;4062;49.844;8.120;2023-07-30T03:10:16;98845.66;;;18.82;56.77
8039;BME280;4062;49.844;8.120;2023-07-30T03:12:18;98840.28;;;18.82;56.80
8039;BME280;4062;49.844;8.120;2023-07-30T03:14:19;98845.66;;;18.82;56.71
8039;BME280;4062;49.844;8.120;2023-07-30T03:16:23;98852.84;;;18.82;56.61
8039;BME280;4062;49.844;8.120;2023-07-30T03:18:25;98859.16;;;18.81;56.86
8039;BME280;4062;49.844;8.120;2023-07-30T03:20:26;98862.66;;;18.81;56.72
8039;BME280;4062;49.844;8.120;2023-07-30T03:22:27;98872.41;;;18.82;56.63
8039;BME280;4062;49.844;8.120;2023-07-30T03:24:29;98863.53;;;18.82;56.68
8039;BME280;4062;49.844;8.120;2023-07-30T03:26:31;98870.69;;;18.81;56.79
8039;BME280;4062;49.844;8.120;2023-07-30T03:28:32;98866.22;;;18.82;56.68
8039;BME280;4062;49.844;8.120;2023-07-30T03:30:34;98866.22;;;18.82;56.97
8039;BME280;4062;49.844;8.120;2023-07-30T03:32:35;98860.88;;;18.82;56.61
8039;BME280;4062;49.844;8.120;2023-07-30T03:34:37;98856.34;;;18.82;56.68
8039;BME280;4062;49.844;8.120;2023-07-30T03:36:41;98868.91;;;18.82;56.67
8039;BME280;4062;49.844;8.120;2023-07-30T03:38:47;98864.38;;;18.82;56.61
8039;BME280;4062;49.844;8.120;2023-07-30T03:40:50;98861.72;;;18.82;56.47
8039;BME280;4062;49.844;8.120;2023-07-30T03:42:53;98858.19;;;18.82;56.83
8039;BME280;4062;49.844;8.120;2023-07-30T03:44:56;98853.69;;;18.82;56.90
8039;BME280;4062;49.844;8.120;2023-07-30T03:46:57;98855.50;;;18.82;56.83
8039;BME280;4062;49.844;8.120;2023-07-30T03:48:59;98858.19;;;18.82;56.67
8039;BME280;4062;49.844;8.120;2023-07-30T03:51:01;98850.16;;;18.82;56.66
8039;BME280;4062;49.844;8.120;2023-07-30T03:53:03;98848.31;;;18.82;56.87
8039;BME280;4062;49.844;8.120;2023-07-30T03:55:05;98855.50;;;18.82;56.49
8039;BME280;4062;49.844;8.120;2023-07-30T03:57:06;98851.97;;;18.81;56.62
8039;BME280;4062;49.844;8.120;2023-07-30T03:59:07;98850.16;;;18.82;56.62
8039;BME280;4062;49.844;8.120;2023-07-30T04:01:09;98855.50;;;18.82;56.85
8039;BME280;4062;49.844;8.120;2023-07-30T04:03:11;98854.63;;;18.81;56.84
8039;BME280;4062;49.844;8.120;2023-07-30T04:05:12;98867.94;;;18.83;56.61
8039;BME280;4062;49.844;8.120;2023-07-30T04:07:14;98868.00;;;18.81;56.82
8039;BME280;4062;49.844;8.120;2023-07-30T04:09:15;98875.19;;;18.81;56.79
8039;BME280;4062;49.844;8.120;2023-07-30T04:11:16;98877.75;;;18.82;56.84
8039;BME280;4062;49.844;8.120;2023-07-30T04:13:18;98887.63;;;18.82;56.75
8039;BME280;4062;49.844;8.120;2023-07-30T04:15:19;98887.63;;;18.82;56.84
8039;BME280;4062;49.844;8.120;2023-07-30T04:17:24;98887.63;;;18.82;56.81
8039;BME280;4062;49.844;8.120;2023-07-30T04:19:26;98879.59;;;18.82;56.87
8039;BME280;4062;49.844;8.120;2023-07-30T04:21:27;98884.94;;;18.82;56.75
8039;BME280;4062;49.844;8.120;2023-07-30T04:23:29;98890.31;;;18.82;56.72
8039;BME280;4062;49.844;8.120;2023-07-30T04:25:30;98890.31;;;18.82;56.62
8039;BME280;4062;49.844;8.120;2023-07-30T04:27:31;98888.47;;;18.82;56.73
8039;BME280;4062;49.844;8.120;2023-07-30T04:29:33;98872.53;;;18.81;56.76
8039;BME280;4062;49.844;8.120;2023-07-30T04:31:34;98877.88;;;18.81;56.87
8039;BME280;4062;49.844;8.120;2023-07-30T04:33:35;98884.06;;;18.81;56.65
8039;BME280;4062;49.844;8.120;2023-07-30T04:35:37;98884.06;;;18.81;56.71
8039;BME280;4062;49.844;8.120;2023-07-30T04:37:39;98889.44;;;18.81;56.63
8039;BME280;4062;49.844;8.120;2023-07-30T04:39:40;98900.13;;;18.81;56.73
8039;BME280;4062;49.844;8.120;2023-07-30T04:41:42;98899.28;;;18.81;56.66
8039;BME280;4062;49.844;8.120;2023-07-30T04:43:43;98891.25;;;18.81;57.08
8039;BME280;4062;49.844;8.120;2023-07-30T04:45:45;98897.47;;;18.81;56.71
8039;BME280;4062;49.844;8.120;2023-07-30T04:47:46;98898.34;;;18.82;56.83
8039;BME280;4062;49.844;8.120;2023-07-30T04:49:48;98892.97;;;18.82;56.98
8039;BME280;4062;49.844;8.120;2023-07-30T04:51:49;98886.75;;;18.81;56.60
8039;BME280;4062;49.844;8.120;2023-07-30T04:53:51;98893.81;;;18.82;56.71
8039;BME280;4062;49.844;8.120;2023-07-30T04:55:56;98889.44;;;18.81;57.01
8039;BME280;4062;49.844;8.120;2023-07-30T04:57:59;98894.78;;;18.81;56.72
8039;BME280;4062;49.844;8.120;2023-07-30T05:00:00;98894.78;;;18.81;56.93
8039;BME280;4062;49.844;8.120;2023-07-30T05:02:02;98891.16;;;18.82;56.87
8039;BME280;4062;49.844;8.120;2023-07-30T05:04:03;98892.09;;;18.81;56.58
8039;BME280;4062;49.844;8.120;2023-07-30T05:06:05;98887.63;;;18.82;56.93
8039;BME280;4062;49.844;8.120;2023-07-30T05:08:07;98893.81;;;18.82;56.74
8039;BME280;4062;49.844;8.120;2023-07-30T05:10:08;98893.81;;;18.82;56.90
8039;BME280;4062;49.844;8.120;2023-07-30T05:12:11;98884.94;;;18.82;57.02
8039;BME280;4062;49.844;8.120;2023-07-30T05:14:13;98882.28;;;18.82;56.88
8039;BME280;4062;49.844;8.120;2023-07-30T05:16:14;98882.28;;;18.82;56.92
8039;BME280;4062;49.844;8.120;2023-07-30T05:18:15;98874.25;;;18.82;56.74
8039;BME280;4062;49.844;8.120;2023-07-30T05:20:17;98884.06;;;18.81;56.69
8039;BME280;4062;49.844;8.120;2023-07-30T05:22:35;98869.84;;;18.81;56.68
8039;BME280;4062;49.844;8.120;2023-07-30T05:24:36;98885.78;;;18.82;56.83
8039;BME280;4062;49.844;8.120;2023-07-30T05:26:43;98884.94;;;18.82;56.73
8039;BME280;4062;49.844;8.120;2023-07-30T05:29:08;98882.28;;;18.82;57.05
8039;BME280;4062;49.844;8.120;2023-07-30T05:31:25;98887.63;;;18.82;56.62
8039;BME280;4062;49.844;8.120;2023-07-30T05:33:27;98884.94;;;18.82;56.80
8039;BME280;4062;49.844;8.120;2023-07-30T05:35:29;98887.63;;;18.82;56.78
8039;BME280;4062;49.844;8.120;2023-07-30T05:37:30;98889.34;;;18.83;56.63
8039;BME280;4062;49.844;8.120;2023-07-30T05:39:32;98884.94;;;18.82;56.87
8039;BME280;4062;49.844;8.120;2023-07-30T05:41:33;98880.44;;;18.82;56.68
8039;BME280;4062;49.844;8.120;2023-07-30T05:43:35;98879.59;;;18.82;56.79
8039;BME280;4062;49.844;8.120;2023-07-30T05:45:37;98886.66;;;18.83;56.74
8039;BME280;4062;49.844;8.120;2023-07-30T05:47:38;98881.31;;;18.83;56.97
8039;BME280;4062;49.844;8.120;2023-07-30T05:49:40;98885.78;;;18.82;56.97
8039;BME280;4062;49.844;8.120;2023-07-30T05:51:41;98868.91;;;18.82;56.74
8039;BME280;4062;49.844;8.120;2023-07-30T05:53:42;98883.13;;;18.82;56.93
8039;BME280;4062;49.844;8.120;2023-07-30T05:55:44;98877.75;;;18.82;56.70
8039;BME280;4062;49.844;8.120;2023-07-30T05:57:45;98876.91;;;18.82;56.67
8039;BME280;4062;49.844;8.120;2023-07-30T05:59:48;98879.59;;;18.82;56.90
8039;BME280;4062;49.844;8.120;2023-07-30T06:01:57;98888.59;;;18.81;56.81
8039;BME280;4062;49.844;8.120;2023-07-30T06:04:02;98892.97;;;18.82;56.99
8039;BME280;4062;49.844;8.120;2023-07-30T06:06:04;98895.66;;;18.82;56.73
8039;BME280;4062;49.844;8.120;2023-07-30T06:08:06;98894.78;;;18.81;56.67
8039;BME280;4062;49.844;8.120;2023-07-30T06:10:34;98897.47;;;18.81;56.94
8039;BME280;4062;49.844;8.120;2023-07-30T06:12:35;98903.69;;;18.82;56.75
8039;BME280;4062;49.844;8.120;2023-07-30T06:14:37;98901.00;;;18.82;56.98
8039;BME280;4062;49.844;8.120;2023-07-30T06:16:38;98901.00;;;18.82;56.97
8039;BME280;4062;49.844;8.120;2023-07-30T06:18:39;98901.84;;;18.82;56.63
8039;BME280;4062;49.844;8.120;2023-07-30T06:20:40;98917.06;;;18.82;56.91
8039;BME280;4062;49.844;8.120;2023-07-30T06:22:42;98920.59;;;18.82;56.72
8039;BME280;4062;49.844;8.120;2023-07-30T06:24:43;98912.56;;;18.82;56.66
8039;BME280;4062;49.844;8.120;2023-07-30T06:26:44;98909.03;;;18.82;56.74
8039;BME280;4062;49.844;8.120;2023-07-30T06:28:46;98911.72;;;18.82;56.72
8039;BME280;4062;49.844;8.120;2023-07-30T06:30:47;98910.84;;;18.81;56.80
8039;BME280;4062;49.844;8.120;2023-07-30T06:32:48;98922.41;;;18.82;56.81
8039;BME280;4062;49.844;8.120;2023-07-30T06:34:50;98916.13;;;18.83;56.98
8039;BME280;4062;49.844;8.120;2023-07-30T06:36:51;98921.53;;;18.81;56.84
8039;BME280;4062;49.844;8.120;2023-07-30T06:38:52;98930.44;;;18.82;56.75
8039;BME280;4062;49.844;8.120;2023-07-30T06:40:54;98943.84;;;18.82;56.98
8039;BME280;4062;49.844;8.120;2023-07-30T06:42:57;98947.34;;;18.82;57.06
8039;BME280;4062;49.844;8.120;2023-07-30T06:44:58;98948.31;;;18.81;57.01
8039;BME280;4062;49.844;8.120;2023-07-30T06:46:59;98957.22;;;18.82;56.81
8039;BME280;4062;49.844;8.120;2023-07-30T06:49:02;98957.22;;;18.82;57.08
8039;BME280;4062;49.844;8.120;2023-07-30T06:51:10;98967.03;;;18.81;56.98
8039;BME280;4062;49.844;8.120;2023-07-30T06:53:13;98975.94;;;18.82;56.97
8039;BME280;4062;49.844;8.120;2023-07-30T06:55:15;98960.84;;;18.81;57.03
8039;BME280;4062;49.844;8.120;2023-07-30T06:57:16;98955.50;;;18.81;56.85
8039;BME280;4062;49.844;8.120;2023-07-30T06:59:18;98941.16;;;18.82;57.09
8039;BME280;4062;49.844;8.120;2023-07-30T07:01:19;98933.97;;;18.82;57.02
8039;BME280;4062;49.844;8.120;2023-07-30T07:03:21;98936.66;;;18.82;57.06
8039;BME280;4062;49.844;8.120;2023-07-30T07:05:22;98936.75;;;18.81;57.01
8039;BME280;4062;49.844;8.120;2023-07-30T07:07:23;98943.84;;;18.82;57.15
8039;BME280;4062;49.844;8.120;2023-07-30T07:09:25;98941.16;;;18.82;57.09
8039;BME280;4062;49.844;8.120;2023-07-30T07:11:26;98941.16;;;18.82;56.86
8039;BME280;4062;49.844;8.120;2023-07-30T07:13:27;98943.84;;;18.82;56.96
8039;BME280;4062;49.844;8.120;2023-07-30T07:15:28;98945.63;;;18.81;56.80
8039;BME280;4062;49.844;8.120;2023-07-30T07:17:40;98954.53;;;18.82;57.05
8039;BME280;4062;49.844;8.120;2023-07-30T07:19:42;98954.53;;;18.82;56.92
8039;BME280;4062;49.844;8.120;2023-07-30T07:21:43;98943.84;;;18.82;56.80
8039;BME280;4062;49.844;8.120;2023-07-30T07:23:44;98946.50;;;18.82;56.96
8039;BME280;4062;49.844;8.120;2023-07-30T07:25:46;98935.81;;;18.82;57.05
8039;BME280;4062;49.844;8.120;2023-07-30T07:27:47;98942.88;;;18.83;57.12
8039;BME280;4062;49.844;8.120;2023-07-30T07:29:48;98942.88;;;18.83;56.80
8039;BME280;4062;49.844;8.120;2023-07-30T07:31:50;98944.56;;;18.84;57.03
8039;BME280;4062;49.844;8.120;2023-07-30T07:33:51;98942.88;;;18.83;56.91
8039;BME280;4062;49.844;8.120;2023-07-30T07:36:02;98940.09;;;18.84;57.00
8039;BME280;4062;49.844;8.120;2023-07-30T07:38:06;98930.34;;;18.83;57.00
8039;BME280;4062;49.844;8.120;2023-07-30T07:40:08;98931.19;;;18.84;56.77
8039;BME280;4062;49.844;8.120;2023-07-30T07:42:10;98928.50;;;18.84;56.92
8039;BME280;4062;49.844;8.120;2023-07-30T07:44:12;98924.97;;;18.83;56.90
8039;BME280;4062;49.844;8.120;2023-07-30T07:46:13;98929.38;;;18.84;57.03
8039;BME280;4062;49.844;8.120;2023-07-30T07:48:15;98934.84;;;18.83;56.79
8039;BME280;4062;49.844;8.120;2023-07-30T07:50:16;98940.94;;;18.85;56.89
8039;BME280;4062;49.844;8.120;2023-07-30T07:52:17;98928.50;;;18.84;56.85
8039;BME280;4062;49.844;8.120;2023-07-30T07:54:19;98932.06;;;18.84;57.11
8039;BME280;4062;49.844;8.120;2023-07-30T07:56:20;98932.91;;;18.85;56.92
8039;BME280;4062;49.844;8.120;2023-07-30T07:58:21;98929.38;;;18.84;57.09
8039;BME280;4062;49.844;8.120;2023-07-30T08:00:23;98930.22;;;18.85;57.12
8039;BME280;4062;49.844;8.120;2023-07-30T08:02:24;98941.81;;;18.85;57.08
8039;BME280;4062;49.844;8.120;2023-07-30T08:04:26;98934.72;;;18.84;56.91
8039;BME280;4062;49.844;8.120;2023-07-30T08:06:27;98925.81;;;18.84;56.97
8039;BME280;4062;49.844;8.120;2023-07-30T08:08:29;98924.97;;;18.83;57.03
8039;BME280;4062;49.844;8.120;2023-07-30T08:10:30;98921.34;;;18.84;57.20
8039;BME280;4062;49.844;8.120;2023-07-30T08:12:32;98927.56;;;18.85;56.90
8039;BME280;4062;49.844;8.120;2023-07-30T08:14:37;98921.34;;;18.84;56.83
8039;BME280;4062;49.844;8.120;2023-07-30T08:16:38;98924.88;;;18.85;56.89
8039;BME280;4062;49.844;8.120;2023-07-30T08:18:39;98932.91;;;18.85;57.08
8039;BME280;4062;49.844;8.120;2023-07-30T08:20:41;98927.56;;;18.85;56.71
8039;BME280;4062;49.844;8.120;2023-07-30T08:22:44;98926.72;;;18.84;56.84
8039;BME280;4062;49.844;8.120;2023-07-30T08:24:45;98928.44;;;18.85;56.89
8039;BME280;4062;49.844;8.120;2023-07-30T08:26:47;98916.84;;;18.85;57.20
8039;BME280;4062;49.844;8.120;2023-07-30T08:28:48;98923.06;;;18.85;56.91
8039;BME280;4062;49.844;8.120;2023-07-30T08:30:49;98919.53;;;18.85;57.12
8039;BME280;4062;49.844;8.120;2023-07-30T08:32:51;98939.13;;;18.85;57.03
8039;BME280;4062;49.844;8.120;2023-07-30T08:34:52;98932.81;;;18.86;57.02
8039;BME280;4062;49.844;8.120;2023-07-30T08:36:54;98925.75;;;18.85;56.83
8039;BME280;4062;49.844;8.120;2023-07-30T08:38:55;98923.91;;;18.86;56.78
8039;BME280;4062;49.844;8.120;2023-07-30T08:40:57;98923.06;;;18.85;56.89
8039;BME280;4062;49.844;8.120;2023-07-30T08:42:59;98920.41;;;18.85;56.91
8039;BME280;4062;49.844;8.120;2023-07-30T08:45:00;98933.78;;;18.85;56.91
8039;BME280;4062;49.844;8.120;2023-07-30T08:47:01;98927.47;;;18.86;57.06
8039;BME280;4062;49.844;8.120;2023-07-30T08:49:03;98936.47;;;18.85;57.15
8039;BME280;4062;49.844;8.120;2023-07-30T08:51:04;98965.03;;;18.85;56.90
8039;BME280;4062;49.844;8.120;2023-07-30T08:53:07;98965.03;;;18.85;57.20
8039;BME280;4062;49.844;8.120;2023-07-30T08:55:11;98981.97;;;18.85;57.21
8039;BME280;4062;49.844;8.120;2023-07-30T08:57:12;98978.41;;;18.85;56.90
8039;BME280;4062;49.844;8.120;2023-07-30T08:59:15;98987.31;;;18.85;57.17
8039;BME280;4062;49.844;8.120;2023-07-30T09:01:18;98998.09;;;18.84;57.03
8039;BME280;4062;49.844;8.120;2023-07-30T09:03:24;99001.66;;;18.84;56.84
8039;BME280;4062;49.844;8.120;2023-07-30T09:05:29;98996.19;;;18.86;56.97
8039;BME280;4062;49.844;8.120;2023-07-30T09:07:31;99002.50;;;18.85;57.08
8039;BME280;4062;49.844;8.120;2023-07-30T09:09:32;99008.72;;;18.85;56.90
8039;BME280;4062;49.844;8.120;2023-07-30T09:11:34;99015.88;;;18.85;57.02
8039;BME280;4062;49.844;8.120;2023-07-30T09:13:40;99007.84;;;18.85;56.95
8039;BME280;4062;49.844;8.120;2023-07-30T09:15:41;99026.59;;;18.85;57.33
8039;BME280;4062;49.844;8.120;2023-07-30T09:17:42;99015.88;;;18.85;57.40
8039;BME280;4062;49.844;8.120;2023-07-30T09:19:44;99018.56;;;18.85;57.00
8039;BME280;4062;49.844;8.120;2023-07-30T09:21:47;99012.34;;;18.84;57.11
8039;BME280;4062;49.844;8.120;2023-07-30T09:23:49;99021.22;;;18.85;56.97
8039;BME280;4062;49.844;8.120;2023-07-30T09:25:50;99017.72;;;18.84;57.18
8039;BME280;4062;49.844;8.120;2023-07-30T09:27:52;99016.75;;;18.85;57.04
8039;BME280;4062;49.844;8.120;2023-07-30T09:29:55;99023.91;;;18.85;57.23
8039;BME280;4062;49.844;8.120;2023-07-30T09:31:57;99026.59;;;18.85;57.01
8039;BME280;4062;49.844;8.120;2023-07-30T09:33:58;99030.13;;;18.85;57.28
8039;BME280;4062;49.844;8.120;2023-07-30T09:36:04;99039.88;;;18.86;56.99
8039;BME280;4062;49.844;8.120;2023-07-30T09:38:05;99047.91;;;18.86;57.10
8039;BME280;4062;49.844;8.120;2023-07-30T09:40:08;99033.66;;;18.86;57.00
8039;BME280;4062;49.844;8.120;2023-07-30T09:42:10;99036.34;;;18.86;57.03
8039;BME280;4062;49.844;8.120;2023-07-30T09:44:13;99050.59;;;18.86;57.13
8039;BME280;4062;49.844;8.120;2023-07-30T09:46:14;99062.16;;;18.87;57.01
8039;BME280;4062;49.844;8.120;2023-07-30T09:48:16;99055.94;;;18.86;56.97
8039;BME280;4062;49.844;8.120;2023-07-30T09:50:17;99061.31;;;18.86;57.22
8039;BME280;4062;49.844;8.120;2023-07-30T09:52:20;99057.75;;;18.86;57.21
8039;BME280;4062;49.844;8.120;2023-07-30T09:54:22;99060.41;;;18.86;57.14
8039;BME280;4062;49.844;8.120;2023-07-30T09:56:24;99074.69;;;18.86;57.32
8039;BME280;4062;49.844;8.120;2023-07-30T09:58:25;99077.34;;;18.86;57.14
8039;BME280;4062;49.844;8.120;2023-07-30T10:00:28;99086.25;;;18.87;57.07
8039;BME280;4062;49.844;8.120;2023-07-30T10:02:31;99092.47;;;18.87;56.87
8039;BME280;4062;49.844;8.120;2023-07-30T10:04:34;99092.47;;;18.87;56.86
8039;BME280;4062;49.844;8.120;2023-07-30T10:07:06;99100.50;;;18.87;56.99
8039;BME280;4062;49.844;8.120;2023-07-30T10:09:11;99087.97;;;18.88;57.30
8039;BME280;4062;49.844;8.120;2023-07-30T10:11:14;99087.97;;;18.88;57.02
8039;BME280;4062;49.844;8.120;2023-07-30T10:13:16;99100.38;;;18.89;56.91
8039;BME280;4062;49.844;8.120;2023-07-30T10:15:21;99099.50;;;18.88;57.11
8039;BME280;4062;49.844;8.120;2023-07-30T10:17:24;99095.88;;;18.89;57.24
8039;BME280;4062;49.844;8.120;2023-07-30T10:19:27;99095.03;;;18.89;56.88
8039;BME280;4062;49.844;8.120;2023-07-30T10:21:31;99098.66;;;18.88;57.02
8039;BME280;4062;49.844;8.120;2023-07-30T10:23:33;99099.50;;;18.88;57.27
8039;BME280;4062;49.844;8.120;2023-07-30T10:25:48;99095.03;;;18.89;56.76
8039;BME280;4062;49.844;8.120;2023-07-30T10:27:51;99092.25;;;18.90;56.90
8039;BME280;4062;49.844;8.120;2023-07-30T10:30:10;99086.91;;;18.90;57.12
8039;BME280;4062;49.844;8.120;2023-07-30T10:32:12;99083.44;;;18.88;57.01
8039;BME280;4062;49.844;8.120;2023-07-30T10:34:14;99092.34;;;18.89;56.96
8039;BME280;4062;49.844;8.120;2023-07-30T10:36:18;99093.19;;;18.89;56.91
8039;BME280;4062;49.844;8.120;2023-07-30T10:38:22;99089.56;;;18.90;56.96
8039;BME280;4062;49.844;8.120;2023-07-30T10:40:30;99080.69;;;18.90;57.07
8039;BME280;4062;49.844;8.120;2023-07-30T10:42:34;99098.47;;;18.91;57.04
8039;BME280;4062;49.844;8.120;2023-07-30T10:44:36;99111.88;;;18.91;56.84
8039;BME280;4062;49.844;8.120;2023-07-30T10:46:37;99109.19;;;18.91;56.87
8039;BME280;4062;49.844;8.120;2023-07-30T10:48:41;99099.31;;;18.91;56.96
8039;BME280;4062;49.844;8.120;2023-07-30T10:50:43;99106.50;;;18.91;57.06
8039;BME280;4062;49.844;8.120;2023-07-30T10:52:49;99106.44;;;18.93;56.82
8039;BME280;4062;49.844;8.120;2023-07-30T10:55:00;99107.34;;;18.91;57.13
8039;BME280;4062;49.844;8.120;2023-07-30T10:57:03;99119.03;;;18.90;57.07
8039;BME280;4062;49.844;8.120;2023-07-30T10:59:05;99113.66;;;18.90;56.88
8039;BME280;4062;49.844;8.120;2023-07-30T11:01:09;99115.50;;;18.90;57.10
8039;BME280;4062;49.844;8.120;2023-07-30T11:03:11;99116.28;;;18.92;57.00
8039;BME280;4062;49.844;8.120;2023-07-30T11:05:16;99124.38;;;18.90;57.06
8039;BME280;4062;49.844;8.120;2023-07-30T11:07:18;99125.25;;;18.91;56.80
8039;BME280;4062;49.844;8.120;2023-07-30T11:09:25;99126.22;;;18.90;56.91
8039;BME280;4062;49.844;8.120;2023-07-30T11:11:26;99134.25;;;18.90;56.88
8039;BME280;4062;49.844;8.120;2023-07-30T11:13:28;99135.09;;;18.90;57.11
8039;BME280;4062;49.844;8.120;2023-07-30T11:15:30;99132.41;;;18.90;57.06